Terminal Aerodrome Forecast
Issued by NWS Twin Cities, MN

Home | Current Version | Previous Version | Graphics & Text | Print | Product List | Glossary On
Versions: 1 2 3 4 5 6 7 8 9 10 11 12 13
000
FTUS43 KMPX 131700
TAFEAU
TAF
KEAU 131739Z 1318/1418 23006KT P6SM SCT060
     FM140000 17006KT P6SM FEW200
     FM140500 19005KT P6SM BKN060
     FM141400 22009KT P6SM FEW100=

USA.gov is the U.S. government's official web portal to all federal, state and local government web resources and services.